sensor_id;sensor_type;location;lat;lon;timestamp;temperature;humidity
35523;DHT22;61478;50.820;4.330;2023-08-24T00:01:21;23.70;99.90
35523;DHT22;61478;50.820;4.330;2023-08-24T00:03:52;23.70;99.90
35523;DHT22;61478;50.820;4.330;2023-08-24T00:09:01;23.60;99.90
35523;DHT22;61478;50.820;4.330;2023-08-24T00:11:29;23.50;99.90
35523;DHT22;61478;50.820;4.330;2023-08-24T00:13:59;23.40;99.90
35523;DHT22;61478;50.820;4.330;2023-08-24T00:16:24;22.90;99.90
35523;DHT22;61478;50.820;4.330;2023-08-24T00:18:50;22.80;99.90
35523;DHT22;61478;50.820;4.330;2023-08-24T00:21:16;22.70;99.90
35523;DHT22;61478;50.820;4.330;2023-08-24T00:23:43;22.70;99.90
35523;DHT22;61478;50.820;4.330;2023-08-24T00:26:09;23.00;99.90
35523;DHT22;61478;50.820;4.330;2023-08-24T00:28:37;23.20;99.90
35523;DHT22;61478;50.820;4.330;2023-08-24T00:31:03;23.10;99.90
35523;DHT22;61478;50.820;4.330;2023-08-24T00:33:29;23.10;99.90
35523;DHT22;61478;50.820;4.330;2023-08-24T00:36:04;23.10;99.90
35523;DHT22;61478;50.820;4.330;2023-08-24T00:38:31;23.10;99.90
35523;DHT22;61478;50.820;4.330;2023-08-24T00:40:57;23.10;99.90
35523;DHT22;61478;50.820;4.330;2023-08-24T00:43:30;23.10;99.90
35523;DHT22;61478;50.820;4.330;2023-08-24T00:46:02;23.10;99.90
35523;DHT22;61478;50.820;4.330;2023-08-24T00:48:29;23.20;99.90
35523;DHT22;61478;50.820;4.330;2023-08-24T00:51:00;23.20;99.90
35523;DHT22;61478;50.820;4.330;2023-08-24T00:53:27;22.90;99.90
35523;DHT22;61478;50.820;4.330;2023-08-24T00:55:54;22.80;99.90
35523;DHT22;61478;50.820;4.330;2023-08-24T00:58:23;22.90;99.90
35523;DHT22;61478;50.820;4.330;2023-08-24T01:00:51;23.10;99.90
35523;DHT22;61478;50.820;4.330;2023-08-24T01:03:17;23.30;99.90
35523;DHT22;61478;50.820;4.330;2023-08-24T01:05:50;23.30;99.90
35523;DHT22;61478;50.820;4.330;2023-08-24T01:08:17;23.30;99.90
35523;DHT22;61478;50.820;4.330;2023-08-24T01:11:09;23.30;99.90
35523;DHT22;61478;50.820;4.330;2023-08-24T01:14:04;23.40;99.90
35523;DHT22;61478;50.820;4.330;2023-08-24T01:16:36;23.60;99.90
35523;DHT22;61478;50.820;4.330;2023-08-24T01:19:25;23.60;99.90
35523;DHT22;61478;50.820;4.330;2023-08-24T01:21:56;23.50;99.90
35523;DHT22;61478;50.820;4.330;2023-08-24T01:24:36;23.70;99.90
35523;DHT22;61478;50.820;4.330;2023-08-24T01:27:04;23.70;99.90
35523;DHT22;61478;50.820;4.330;2023-08-24T01:29:31;23.70;99.90
35523;DHT22;61478;50.820;4.330;2023-08-24T01:32:00;23.90;99.90
35523;DHT22;61478;50.820;4.330;2023-08-24T01:34:25;23.80;99.90
35523;DHT22;61478;50.820;4.330;2023-08-24T01:36:51;23.70;99.90
35523;DHT22;61478;50.820;4.330;2023-08-24T01:39:33;23.20;99.90
35523;DHT22;61478;50.820;4.330;2023-08-24T01:42:05;23.00;99.90
35523;DHT22;61478;50.820;4.330;2023-08-24T01:44:35;22.70;99.90
35523;DHT22;61478;50.820;4.330;2023-08-24T01:47:04;22.50;99.90
35523;DHT22;61478;50.820;4.330;2023-08-24T01:49:31;22.50;99.90
35523;DHT22;61478;50.820;4.330;2023-08-24T01:51:59;22.30;99.90
35523;DHT22;61478;50.820;4.330;2023-08-24T01:54:25;22.00;99.90
35523;DHT22;61478;50.820;4.330;2023-08-24T01:56:51;21.70;99.90
35523;DHT22;61478;50.820;4.330;2023-08-24T01:59:20;21.90;99.90
35523;DHT22;61478;50.820;4.330;2023-08-24T02:01:49;21.80;99.90
35523;DHT22;61478;50.820;4.330;2023-08-24T02:04:15;21.90;99.90
35523;DHT22;61478;50.820;4.330;2023-08-24T02:06:41;22.10;99.90
35523;DHT22;61478;50.820;4.330;2023-08-24T02:09:09;22.10;99.90
35523;DHT22;61478;50.820;4.330;2023-08-24T02:11:35;22.20;99.90
35523;DHT22;61478;50.820;4.330;2023-08-24T02:14:01;22.40;99.90
35523;DHT22;61478;50.820;4.330;2023-08-24T02:16:27;22.60;99.90
35523;DHT22;61478;50.820;4.330;2023-08-24T02:18:53;22.70;99.90
35523;DHT22;61478;50.820;4.330;2023-08-24T02:21:21;22.50;99.90
35523;DHT22;61478;50.820;4.330;2023-08-24T02:23:47;22.50;99.90
35523;DHT22;61478;50.820;4.330;2023-08-24T02:26:13;21.90;99.90
35523;DHT22;61478;50.820;4.330;2023-08-24T02:28:42;21.80;99.90
35523;DHT22;61478;50.820;4.330;2023-08-24T02:31:08;21.80;99.90
35523;DHT22;61478;50.820;4.330;2023-08-24T02:33:35;21.70;99.90
35523;DHT22;61478;50.820;4.330;2023-08-24T02:36:01;21.70;99.90
35523;DHT22;61478;50.820;4.330;2023-08-24T02:38:27;21.40;99.90
35523;DHT22;61478;50.820;4.330;2023-08-24T02:41:06;21.20;99.90
35523;DHT22;61478;50.820;4.330;2023-08-24T02:43:33;21.20;99.90
35523;DHT22;61478;50.820;4.330;2023-08-24T02:46:04;21.10;99.90
35523;DHT22;61478;50.820;4.330;2023-08-24T02:48:33;21.10;99.90
35523;DHT22;61478;50.820;4.330;2023-08-24T02:51:04;21.00;99.90
35523;DHT22;61478;50.820;4.330;2023-08-24T02:53:33;21.00;99.90
35523;DHT22;61478;50.820;4.330;2023-08-24T02:55:58;21.00;99.90
35523;DHT22;61478;50.820;4.330;2023-08-24T02:58:25;21.10;99.90
35523;DHT22;61478;50.820;4.330;2023-08-24T03:00:53;21.00;99.90
35523;DHT22;61478;50.820;4.330;2023-08-24T03:03:19;21.00;99.90
35523;DHT22;61478;50.820;4.330;2023-08-24T03:05:58;20.90;99.90
35523;DHT22;61478;50.820;4.330;2023-08-24T03:08:30;21.00;99.90
35523;DHT22;61478;50.820;4.330;2023-08-24T03:10:57;21.10;99.90
35523;DHT22;61478;50.820;4.330;2023-08-24T03:13:23;21.00;99.90
35523;DHT22;61478;50.820;4.330;2023-08-24T03:15:53;21.20;99.90
35523;DHT22;61478;50.820;4.330;2023-08-24T03:18:19;21.20;99.90
35523;DHT22;61478;50.820;4.330;2023-08-24T03:20:47;21.30;99.90
35523;DHT22;61478;50.820;4.330;2023-08-24T03:23:13;21.20;99.90
35523;DHT22;61478;50.820;4.330;2023-08-24T03:25:41;21.30;99.90
35523;DHT22;61478;50.820;4.330;2023-08-24T03:28:08;21.20;99.90
35523;DHT22;61478;50.820;4.330;2023-08-24T03:30:44;21.20;99.90
35523;DHT22;61478;50.820;4.330;2023-08-24T03:33:10;21.40;99.90
35523;DHT22;61478;50.820;4.330;2023-08-24T03:35:36;21.40;99.90
35523;DHT22;61478;50.820;4.330;2023-08-24T03:38:03;21.40;99.90
35523;DHT22;61478;50.820;4.330;2023-08-24T03:40:29;21.30;99.90
35523;DHT22;61478;50.820;4.330;2023-08-24T03:42:56;21.40;99.90
35523;DHT22;61478;50.820;4.330;2023-08-24T03:45:22;21.50;99.90
35523;DHT22;61478;50.820;4.330;2023-08-24T03:47:48;21.40;99.90
35523;DHT22;61478;50.820;4.330;2023-08-24T03:50:14;21.40;99.90
35523;DHT22;61478;50.820;4.330;2023-08-24T03:52:41;21.30;99.90
35523;DHT22;61478;50.820;4.330;2023-08-24T03:55:07;21.10;99.90
35523;DHT22;61478;50.820;4.330;2023-08-24T03:57:34;20.90;99.90
35523;DHT22;61478;50.820;4.330;2023-08-24T04:00:00;20.60;99.90
35523;DHT22;61478;50.820;4.330;2023-08-24T04:02:26;20.50;99.90
35523;DHT22;61478;50.820;4.330;2023-08-24T04:04:52;20.20;99.90
35523;DHT22;61478;50.820;4.330;2023-08-24T04:07:18;20.20;99.90
35523;DHT22;61478;50.820;4.330;2023-08-24T04:09:44;20.30;99.90
35523;DHT22;61478;50.820;4.330;2023-08-24T04:12:11;20.50;99.90
35523;DHT22;61478;50.820;4.330;2023-08-24T04:14:37;20.60;99.90
35523;DHT22;61478;50.820;4.330;2023-08-24T04:17:03;20.70;99.90
35523;DHT22;61478;50.820;4.330;2023-08-24T04:19:29;20.70;99.90
35523;DHT22;61478;50.820;4.330;2023-08-24T04:21:54;20.70;99.90
35523;DHT22;61478;50.820;4.330;2023-08-24T04:24:20;20.90;99.90
35523;DHT22;61478;50.820;4.330;2023-08-24T04:26:46;21.10;99.90
35523;DHT22;61478;50.820;4.330;2023-08-24T04:29:12;21.20;99.90
35523;DHT22;61478;50.820;4.330;2023-08-24T04:31:38;21.10;99.90
35523;DHT22;61478;50.820;4.330;2023-08-24T04:34:06;20.80;99.90
35523;DHT22;61478;50.820;4.330;2023-08-24T04:36:32;20.50;99.90
35523;DHT22;61478;50.820;4.330;2023-08-24T04:39:00;20.40;99.90
35523;DHT22;61478;50.820;4.330;2023-08-24T04:41:27;20.30;99.90
35523;DHT22;61478;50.820;4.330;2023-08-24T04:43:56;20.40;99.90
35523;DHT22;61478;50.820;4.330;2023-08-24T04:46:22;20.60;99.90
35523;DHT22;61478;50.820;4.330;2023-08-24T04:48:47;20.70;99.90
35523;DHT22;61478;50.820;4.330;2023-08-24T04:51:13;20.80;99.90
35523;DHT22;61478;50.820;4.330;2023-08-24T04:53:39;20.60;99.90
35523;DHT22;61478;50.820;4.330;2023-08-24T04:56:08;20.50;99.90
35523;DHT22;61478;50.820;4.330;2023-08-24T04:58:34;20.50;99.90
35523;DHT22;61478;50.820;4.330;2023-08-24T05:01:03;20.50;99.90
35523;DHT22;61478;50.820;4.330;2023-08-24T05:03:30;20.50;99.90
35523;DHT22;61478;50.820;4.330;2023-08-24T05:05:56;20.60;99.90
35523;DHT22;61478;50.820;4.330;2023-08-24T05:08:22;20.70;99.90
35523;DHT22;61478;50.820;4.330;2023-08-24T05:10:48;20.90;99.90
35523;DHT22;61478;50.820;4.330;2023-08-24T05:13:14;21.10;99.90
35523;DHT22;61478;50.820;4.330;2023-08-24T05:15:40;21.20;99.90
35523;DHT22;61478;50.820;4.330;2023-08-24T05:18:06;21.40;99.90
35523;DHT22;61478;50.820;4.330;2023-08-24T05:20:32;21.50;99.90
35523;DHT22;61478;50.820;4.330;2023-08-24T05:22:58;21.50;99.90
35523;DHT22;61478;50.820;4.330;2023-08-24T05:25:25;21.50;99.90
35523;DHT22;61478;50.820;4.330;2023-08-24T05:27:50;21.50;99.90
35523;DHT22;61478;50.820;4.330;2023-08-24T05:30:17;21.40;99.90
35523;DHT22;61478;50.820;4.330;2023-08-24T05:32:43;21.30;99.90
35523;DHT22;61478;50.820;4.330;2023-08-24T05:35:10;21.40;99.90
35523;DHT22;61478;50.820;4.330;2023-08-24T05:37:36;21.30;99.90
35523;DHT22;61478;50.820;4.330;2023-08-24T05:40:02;21.20;99.90
35523;DHT22;61478;50.820;4.330;2023-08-24T05:42:32;21.40;99.90
35523;DHT22;61478;50.820;4.330;2023-08-24T05:44:58;21.50;99.90
35523;DHT22;61478;50.820;4.330;2023-08-24T05:47:24;21.50;99.90
35523;DHT22;61478;50.820;4.330;2023-08-24T05:49:52;21.60;99.90
35523;DHT22;61478;50.820;4.330;2023-08-24T05:52:18;21.60;99.90
35523;DHT22;61478;50.820;4.330;2023-08-24T05:54:44;21.30;99.90
35523;DHT22;61478;50.820;4.330;2023-08-24T05:57:10;21.10;99.90
35523;DHT22;61478;50.820;4.330;2023-08-24T05:59:36;21.10;99.90
35523;DHT22;61478;50.820;4.330;2023-08-24T06:02:05;21.00;99.90
35523;DHT22;61478;50.820;4.330;2023-08-24T06:04:31;20.90;99.90
35523;DHT22;61478;50.820;4.330;2023-08-24T06:06:57;21.00;99.90
35523;DHT22;61478;50.820;4.330;2023-08-24T06:09:23;21.00;99.90
35523;DHT22;61478;50.820;4.330;2023-08-24T06:11:49;21.10;99.90
35523;DHT22;61478;50.820;4.330;2023-08-24T06:14:15;21.10;99.90
35523;DHT22;61478;50.820;4.330;2023-08-24T06:16:41;21.20;99.90
35523;DHT22;61478;50.820;4.330;2023-08-24T06:19:06;21.30;99.90
35523;DHT22;61478;50.820;4.330;2023-08-24T06:21:32;21.40;99.90
35523;DHT22;61478;50.820;4.330;2023-08-24T06:23:58;21.50;99.90
35523;DHT22;61478;50.820;4.330;2023-08-24T06:26:24;21.60;99.90
35523;DHT22;61478;50.820;4.330;2023-08-24T06:28:50;21.70;99.90
35523;DHT22;61478;50.820;4.330;2023-08-24T06:31:16;21.60;99.90
35523;DHT22;61478;50.820;4.330;2023-08-24T06:33:47;21.60;99.90
35523;DHT22;61478;50.820;4.330;2023-08-24T06:38:51;21.80;99.90
35523;DHT22;61478;50.820;4.330;2023-08-24T06:41:19;21.80;99.90
35523;DHT22;61478;50.820;4.330;2023-08-24T06:43:45;21.70;99.90
35523;DHT22;61478;50.820;4.330;2023-08-24T06:46:13;21.60;99.90
35523;DHT22;61478;50.820;4.330;2023-08-24T06:48:39;21.60;99.90
35523;DHT22;61478;50.820;4.330;2023-08-24T06:51:08;21.70;99.90
35523;DHT22;61478;50.820;4.330;2023-08-24T06:53:34;21.80;99.90
35523;DHT22;61478;50.820;4.330;2023-08-24T06:56:00;21.90;99.90
35523;DHT22;61478;50.820;4.330;2023-08-24T06:58:29;22.00;99.90
35523;DHT22;61478;50.820;4.330;2023-08-24T07:00:55;22.20;99.90
35523;DHT22;61478;50.820;4.330;2023-08-24T07:03:23;22.30;99.90
35523;DHT22;61478;50.820;4.330;2023-08-24T07:05:49;22.30;99.90
35523;DHT22;61478;50.820;4.330;2023-08-24T07:08:15;22.40;99.90
35523;DHT22;61478;50.820;4.330;2023-08-24T07:10:42;22.50;99.90
35523;DHT22;61478;50.820;4.330;2023-08-24T07:13:08;22.40;99.90
35523;DHT22;61478;50.820;4.330;2023-08-24T07:15:34;22.50;99.90
35523;DHT22;61478;50.820;4.330;2023-08-24T07:18:04;22.60;99.90
35523;DHT22;61478;50.820;4.330;2023-08-24T07:20:32;22.70;99.90
35523;DHT22;61478;50.820;4.330;2023-08-24T07:22:58;22.80;99.90
35523;DHT22;61478;50.820;4.330;2023-08-24T07:25:27;22.90;99.90
35523;DHT22;61478;50.820;4.330;2023-08-24T07:27:56;23.10;99.90
35523;DHT22;61478;50.820;4.330;2023-08-24T07:30:27;23.20;99.90
35523;DHT22;61478;50.820;4.330;2023-08-24T07:32:54;23.40;99.90
35523;DHT22;61478;50.820;4.330;2023-08-24T07:35:20;23.60;99.90
35523;DHT22;61478;50.820;4.330;2023-08-24T07:37:47;23.70;99.90
35523;DHT22;61478;50.820;4.330;2023-08-24T07:40:14;23.70;99.90
35523;DHT22;61478;50.820;4.330;2023-08-24T07:42:50;23.60;99.90
35523;DHT22;61478;50.820;4.330;2023-08-24T07:45:18;23.60;99.90
35523;DHT22;61478;50.820;4.330;2023-08-24T07:47:46;23.70;99.90
35523;DHT22;61478;50.820;4.330;2023-08-24T07:50:15;23.90;99.90
35523;DHT22;61478;50.820;4.330;2023-08-24T07:52:42;24.00;99.90
35523;DHT22;61478;50.820;4.330;2023-08-24T07:55:08;24.10;99.90
35523;DHT22;61478;50.820;4.330;2023-08-24T07:57:35;24.10;99.90
35523;DHT22;61478;50.820;4.330;2023-08-24T08:00:04;24.00;99.90
35523;DHT22;61478;50.820;4.330;2023-08-24T08:02:31;23.90;99.90
35523;DHT22;61478;50.820;4.330;2023-08-24T08:04:59;24.00;99.90
35523;DHT22;61478;50.820;4.330;2023-08-24T08:07:26;24.10;99.90
35523;DHT22;61478;50.820;4.330;2023-08-24T08:10:01;24.30;99.90
35523;DHT22;61478;50.820;4.330;2023-08-24T08:12:29;24.20;99.90
35523;DHT22;61478;50.820;4.330;2023-08-24T08:14:59;24.10;99.90
35523;DHT22;61478;50.820;4.330;2023-08-24T08:17:27;24.10;99.90
35523;DHT22;61478;50.820;4.330;2023-08-24T08:19:56;24.20;99.90
35523;DHT22;61478;50.820;4.330;2023-08-24T08:22:29;24.20;99.90
35523;DHT22;61478;50.820;4.330;2023-08-24T08:24:55;24.20;99.90
35523;DHT22;61478;50.820;4.330;2023-08-24T08:27:23;24.30;99.90
35523;DHT22;61478;50.820;4.330;2023-08-24T08:29:50;24.40;99.90
35523;DHT22;61478;50.820;4.330;2023-08-24T08:32:16;24.50;99.90
35523;DHT22;61478;50.820;4.330;2023-08-24T08:34:41;24.50;99.90
35523;DHT22;61478;50.820;4.330;2023-08-24T08:37:07;24.60;99.90
35523;DHT22;61478;50.820;4.330;2023-08-24T08:39:33;24.60;99.90
35523;DHT22;61478;50.820;4.330;2023-08-24T08:41:59;24.40;99.90
35523;DHT22;61478;50.820;4.330;2023-08-24T08:44:30;24.40;99.90
35523;DHT22;61478;50.820;4.330;2023-08-24T08:46:59;24.40;99.90
35523;DHT22;61478;50.820;4.330;2023-08-24T08:49:26;24.40;99.90
35523;DHT22;61478;50.820;4.330;2023-08-24T08:51:58;24.50;99.90
35523;DHT22;61478;50.820;4.330;2023-08-24T08:54:24;24.60;99.90
35523;DHT22;61478;50.820;4.330;2023-08-24T08:56:50;24.60;99.90
35523;DHT22;61478;50.820;4.330;2023-08-24T08:59:17;24.70;99.90
35523;DHT22;61478;50.820;4.330;2023-08-24T09:01:44;24.60;99.90
35523;DHT22;61478;50.820;4.330;2023-08-24T09:04:16;24.50;99.90
35523;DHT22;61478;50.820;4.330;2023-08-24T09:06:42;24.50;99.90
35523;DHT22;61478;50.820;4.330;2023-08-24T09:09:08;24.40;99.90
35523;DHT22;61478;50.820;4.330;2023-08-24T09:11:35;24.60;99.90
35523;DHT22;61478;50.820;4.330;2023-08-24T09:14:07;24.50;99.90
35523;DHT22;61478;50.820;4.330;2023-08-24T09:16:33;24.40;99.90
35523;DHT22;61478;50.820;4.330;2023-08-24T09:18:58;24.40;99.90
35523;DHT22;61478;50.820;4.330;2023-08-24T09:21:24;24.20;99.90
35523;DHT22;61478;50.820;4.330;2023-08-24T09:23:55;24.00;99.90
35523;DHT22;61478;50.820;4.330;2023-08-24T09:26:32;23.80;99.90
35523;DHT22;61478;50.820;4.330;2023-08-24T09:29:10;23.70;99.90
35523;DHT22;61478;50.820;4.330;2023-08-24T09:31:41;23.50;99.90
35523;DHT22;61478;50.820;4.330;2023-08-24T09:34:10;23.40;99.90
35523;DHT22;61478;50.820;4.330;2023-08-24T09:36:37;23.30;99.90
35523;DHT22;61478;50.820;4.330;2023-08-24T09:39:04;23.20;99.90
35523;DHT22;61478;50.820;4.330;2023-08-24T09:41:43;22.90;99.90
35523;DHT22;61478;50.820;4.330;2023-08-24T09:44:12;22.80;99.90
35523;DHT22;61478;50.820;4.330;2023-08-24T09:46:40;22.50;99.90
35523;DHT22;61478;50.820;4.330;2023-08-24T09:49:08;22.40;99.90
35523;DHT22;61478;50.820;4.330;2023-08-24T09:51:35;22.20;99.90
35523;DHT22;61478;50.820;4.330;2023-08-24T09:54:06;22.00;99.90
35523;DHT22;61478;50.820;4.330;2023-08-24T09:56:38;21.90;99.90
35523;DHT22;61478;50.820;4.330;2023-08-24T09:59:16;21.80;99.90
35523;DHT22;61478;50.820;4.330;2023-08-24T10:01:50;21.60;99.90
35523;DHT22;61478;50.820;4.330;2023-08-24T10:04:23;21.60;99.90
35523;DHT22;61478;50.820;4.330;2023-08-24T10:06:52;21.50;99.90
35523;DHT22;61478;50.820;4.330;2023-08-24T10:09:31;21.50;99.90
35523;DHT22;61478;50.820;4.330;2023-08-24T10:12:02;21.50;99.90
35523;DHT22;61478;50.820;4.330;2023-08-24T10:14:36;21.40;99.90
35523;DHT22;61478;50.820;4.330;2023-08-24T10:17:07;21.40;99.90
35523;DHT22;61478;50.820;4.330;2023-08-24T10:19:34;21.40;99.90
35523;DHT22;61478;50.820;4.330;2023-08-24T10:22:03;21.50;99.90
35523;DHT22;61478;50.820;4.330;2023-08-24T10:24:30;21.60;99.90
35523;DHT22;61478;50.820;4.330;2023-08-24T10:26:58;21.80;99.90
35523;DHT22;61478;50.820;4.330;2023-08-24T10:29:26;22.10;99.90
35523;DHT22;61478;50.820;4.330;2023-08-24T10:31:54;22.30;99.90
35523;DHT22;61478;50.820;4.330;2023-08-24T10:34:20;22.40;99.90
35523;DHT22;61478;50.820;4.330;2023-08-24T10:36:47;22.50;99.90
35523;DHT22;61478;50.820;4.330;2023-08-24T10:39:14;22.50;99.90
35523;DHT22;61478;50.820;4.330;2023-08-24T10:41:48;22.50;99.90
35523;DHT22;61478;50.820;4.330;2023-08-24T10:44:34;22.50;99.90
35523;DHT22;61478;50.820;4.330;2023-08-24T10:47:20;22.50;99.90
35523;DHT22;61478;50.820;4.330;2023-08-24T10:52:31;22.90;99.90
35523;DHT22;61478;50.820;4.330;2023-08-24T10:55:01;22.90;99.90
35523;DHT22;61478;50.820;4.330;2023-08-24T10:57:39;23.00;99.90
35523;DHT22;61478;50.820;4.330;2023-08-24T11:00:11;23.00;99.90
35523;DHT22;61478;50.820;4.330;2023-08-24T11:02:50;23.10;99.90
35523;DHT22;61478;50.820;4.330;2023-08-24T11:10:17;22.50;99.90
35523;DHT22;61478;50.820;4.330;2023-08-24T11:13:07;22.60;99.90
35523;DHT22;61478;50.820;4.330;2023-08-24T11:15:41;22.80;99.90
35523;DHT22;61478;50.820;4.330;2023-08-24T11:18:23;22.80;99.90
35523;DHT22;61478;50.820;4.330;2023-08-24T11:21:05;22.40;99.90
35523;DHT22;61478;50.820;4.330;2023-08-24T11:23:31;22.60;99.90
35523;DHT22;61478;50.820;4.330;2023-08-24T11:25:58;22.60;99.90
35523;DHT22;61478;50.820;4.330;2023-08-24T11:28:27;22.60;99.90
35523;DHT22;61478;50.820;4.330;2023-08-24T11:30:56;22.40;99.90
35523;DHT22;61478;50.820;4.330;2023-08-24T11:33:32;22.20;99.90
35523;DHT22;61478;50.820;4.330;2023-08-24T11:35:59;22.10;99.90
35523;DHT22;61478;50.820;4.330;2023-08-24T11:38:34;22.10;99.90
35523;DHT22;61478;50.820;4.330;2023-08-24T11:41:03;22.10;99.90
35523;DHT22;61478;50.820;4.330;2023-08-24T11:43:40;21.90;99.90
35523;DHT22;61478;50.820;4.330;2023-08-24T11:46:06;21.90;99.90
35523;DHT22;61478;50.820;4.330;2023-08-24T11:48:32;21.80;99.90
35523;DHT22;61478;50.820;4.330;2023-08-24T11:50:58;21.70;99.90
35523;DHT22;61478;50.820;4.330;2023-08-24T11:53:24;21.70;99.90
35523;DHT22;61478;50.820;4.330;2023-08-24T11:55:53;21.90;99.90
35523;DHT22;61478;50.820;4.330;2023-08-24T11:58:19;21.90;99.90
35523;DHT22;61478;50.820;4.330;2023-08-24T12:00:46;21.90;99.90
35523;DHT22;61478;50.820;4.330;2023-08-24T12:03:13;22.00;99.90
35523;DHT22;61478;50.820;4.330;2023-08-24T12:05:39;22.20;99.90
35523;DHT22;61478;50.820;4.330;2023-08-24T12:08:05;22.20;99.90
35523;DHT22;61478;50.820;4.330;2023-08-24T12:10:31;22.00;99.90
35523;DHT22;61478;50.820;4.330;2023-08-24T12:13:06;21.90;99.90
35523;DHT22;61478;50.820;4.330;2023-08-24T12:15:40;22.00;99.90
35523;DHT22;61478;50.820;4.330;2023-08-24T12:18:10;22.10;99.90
35523;DHT22;61478;50.820;4.330;2023-08-24T12:20:37;22.00;99.90
35523;DHT22;61478;50.820;4.330;2023-08-24T12:23:03;22.00;99.90
35523;DHT22;61478;50.820;4.330;2023-08-24T12:25:29;21.90;99.90
35523;DHT22;61478;50.820;4.330;2023-08-24T12:28:12;21.80;99.90
35523;DHT22;61478;50.820;4.330;2023-08-24T12:30:48;21.70;99.90
35523;DHT22;61478;50.820;4.330;2023-08-24T12:33:32;21.50;99.90
35523;DHT22;61478;50.820;4.330;2023-08-24T12:35:58;21.40;99.90
35523;DHT22;61478;50.820;4.330;2023-08-24T12:38:25;21.50;99.90
35523;DHT22;61478;50.820;4.330;2023-08-24T12:40:52;21.40;99.90
35523;DHT22;61478;50.820;4.330;2023-08-24T12:43:18;21.40;99.90
35523;DHT22;61478;50.820;4.330;2023-08-24T12:45:44;21.30;99.90
35523;DHT22;61478;50.820;4.330;2023-08-24T12:48:11;21.30;99.90
35523;DHT22;61478;50.820;4.330;2023-08-24T12:50:38;21.30;99.90
35523;DHT22;61478;50.820;4.330;2023-08-24T12:53:04;21.30;99.90
35523;DHT22;61478;50.820;4.330;2023-08-24T12:55:36;21.20;99.90
35523;DHT22;61478;50.820;4.330;2023-08-24T12:58:02;21.20;99.90
35523;DHT22;61478;50.820;4.330;2023-08-24T13:00:29;21.20;99.90
35523;DHT22;61478;50.820;4.330;2023-08-24T13:02:55;21.20;99.90
35523;DHT22;61478;50.820;4.330;2023-08-24T13:05:26;21.10;99.90
35523;DHT22;61478;50.820;4.330;2023-08-24T13:07:52;21.10;99.90
35523;DHT22;61478;50.820;4.330;2023-08-24T13:10:18;21.10;99.90
35523;DHT22;61478;50.820;4.330;2023-08-24T13:12:44;21.10;99.90
35523;DHT22;61478;50.820;4.330;2023-08-24T13:15:10;21.10;99.90
35523;DHT22;61478;50.820;4.330;2023-08-24T13:17:40;21.00;99.90
35523;DHT22;61478;50.820;4.330;2023-08-24T13:20:07;21.10;99.90
35523;DHT22;61478;50.820;4.330;2023-08-24T13:22:33;21.10;99.90
35523;DHT22;61478;50.820;4.330;2023-08-24T13:24:59;21.20;99.90
35523;DHT22;61478;50.820;4.330;2023-08-24T13:27:25;21.30;99.90
35523;DHT22;61478;50.820;4.330;2023-08-24T13:29:51;21.30;99.90
35523;DHT22;61478;50.820;4.330;2023-08-24T13:32:17;21.20;99.90
35523;DHT22;61478;50.820;4.330;2023-08-24T13:34:44;21.40;99.90
35523;DHT22;61478;50.820;4.330;2023-08-24T13:37:10;21.30;99.90
35523;DHT22;61478;50.820;4.330;2023-08-24T13:39:35;21.20;99.90
35523;DHT22;61478;50.820;4.330;2023-08-24T13:42:01;21.20;99.90
35523;DHT22;61478;50.820;4.330;2023-08-24T13:44:30;21.20;99.90
35523;DHT22;61478;50.820;4.330;2023-08-24T13:46:56;21.20;99.90
35523;DHT22;61478;50.820;4.330;2023-08-24T13:49:21;21.20;99.90
35523;DHT22;61478;50.820;4.330;2023-08-24T13:51:47;21.20;99.90
35523;DHT22;61478;50.820;4.330;2023-08-24T13:54:16;21.20;99.90
35523;DHT22;61478;50.820;4.330;2023-08-24T13:56:49;21.20;99.90
35523;DHT22;61478;50.820;4.330;2023-08-24T13:59:15;21.40;99.90
35523;DHT22;61478;50.820;4.330;2023-08-24T14:01:41;21.30;99.90
35523;DHT22;61478;50.820;4.330;2023-08-24T14:04:07;21.50;99.90
35523;DHT22;61478;50.820;4.330;2023-08-24T14:06:34;21.60;99.90
35523;DHT22;61478;50.820;4.330;2023-08-24T14:09:03;21.50;99.90
35523;DHT22;61478;50.820;4.330;2023-08-24T14:11:29;21.60;99.90
35523;DHT22;61478;50.820;4.330;2023-08-24T14:13:55;21.50;99.90
35523;DHT22;61478;50.820;4.330;2023-08-24T14:16:21;21.50;99.90
35523;DHT22;61478;50.820;4.330;2023-08-24T14:18:47;21.50;99.90
35523;DHT22;61478;50.820;4.330;2023-08-24T14:21:19;21.50;99.90
35523;DHT22;61478;50.820;4.330;2023-08-24T14:23:46;21.50;99.90
35523;DHT22;61478;50.820;4.330;2023-08-24T14:26:12;21.60;99.90
35523;DHT22;61478;50.820;4.330;2023-08-24T14:28:57;21.70;99.90
35523;DHT22;61478;50.820;4.330;2023-08-24T14:31:27;21.90;99.90
35523;DHT22;61478;50.820;4.330;2023-08-24T14:33:54;22.10;99.90
35523;DHT22;61478;50.820;4.330;2023-08-24T14:36:20;22.10;99.90
35523;DHT22;61478;50.820;4.330;2023-08-24T14:38:47;22.00;99.90
35523;DHT22;61478;50.820;4.330;2023-08-24T14:41:14;22.00;99.90
35523;DHT22;61478;50.820;4.330;2023-08-24T14:43:41;21.90;99.90
35523;DHT22;61478;50.820;4.330;2023-08-24T14:46:07;21.90;99.90
35523;DHT22;61478;50.820;4.330;2023-08-24T14:48:33;22.00;99.90
35523;DHT22;61478;50.820;4.330;2023-08-24T14:50:59;22.00;99.90
35523;DHT22;61478;50.820;4.330;2023-08-24T14:53:26;22.10;99.90
35523;DHT22;61478;50.820;4.330;2023-08-24T14:55:53;22.10;99.90
35523;DHT22;61478;50.820;4.330;2023-08-24T14:58:23;22.20;99.90
35523;DHT22;61478;50.820;4.330;2023-08-24T15:00:57;22.40;99.90
35523;DHT22;61478;50.820;4.330;2023-08-24T15:03:26;22.60;99.90
35523;DHT22;61478;50.820;4.330;2023-08-24T15:06:05;22.80;99.90
35523;DHT22;61478;50.820;4.330;2023-08-24T15:08:32;22.90;99.90
35523;DHT22;61478;50.820;4.330;2023-08-24T15:11:00;23.00;99.90
35523;DHT22;61478;50.820;4.330;2023-08-24T15:13:27;23.20;99.90
35523;DHT22;61478;50.820;4.330;2023-08-24T15:15:54;23.10;99.90
35523;DHT22;61478;50.820;4.330;2023-08-24T15:18:23;23.10;99.90
35523;DHT22;61478;50.820;4.330;2023-08-24T15:20:50;23.10;99.90
35523;DHT22;61478;50.820;4.330;2023-08-24T15:23:28;23.20;99.90
35523;DHT22;61478;50.820;4.330;2023-08-24T15:25:56;23.30;99.90
35523;DHT22;61478;50.820;4.330;2023-08-24T15:28:23;23.40;99.90
35523;DHT22;61478;50.820;4.330;2023-08-24T15:30:49;23.40;99.90
35523;DHT22;61478;50.820;4.330;2023-08-24T15:33:16;23.10;99.90
35523;DHT22;61478;50.820;4.330;2023-08-24T15:35:42;23.40;99.90
35523;DHT22;61478;50.820;4.330;2023-08-24T15:38:11;23.50;99.90
35523;DHT22;61478;50.820;4.330;2023-08-24T15:40:38;23.60;99.90
35523;DHT22;61478;50.820;4.330;2023-08-24T15:43:05;23.70;99.90
35523;DHT22;61478;50.820;4.330;2023-08-24T15:45:31;23.80;99.90
35523;DHT22;61478;50.820;4.330;2023-08-24T15:47:58;23.90;99.90
35523;DHT22;61478;50.820;4.330;2023-08-24T15:50:24;24.00;99.90